createdAt,value
2022-11-29T00:01:02.009Z,101188.31
2022-11-29T00:03:29.658Z,101191.88
2022-11-29T00:05:56.776Z,101188.22
2022-11-29T00:08:23.930Z,101190.94
2022-11-29T00:10:50.917Z,101187.75
2022-11-29T00:13:17.847Z,101183.31
2022-11-29T00:15:44.647Z,101188.75
2022-11-29T00:18:11.418Z,101182.78
2022-11-29T00:20:39.999Z,101186.34
2022-11-29T00:23:06.838Z,101171.41
2022-11-29T00:25:33.598Z,101179.06
2022-11-29T00:28:00.445Z,101176.31
2022-11-29T00:30:27.964Z,101170.28
2022-11-29T00:32:54.889Z,101170.94
2022-11-29T00:35:21.668Z,101172.50
2022-11-29T00:37:48.469Z,101168.03
2022-11-29T00:40:15.449Z,101165.16
2022-11-29T00:42:42.167Z,101157.25
2022-11-29T00:45:09.567Z,101161.47
2022-11-29T00:47:36.462Z,101150.03
2022-11-29T00:50:03.951Z,101162.25
2022-11-29T00:52:30.719Z,101158.59
2022-11-29T00:54:57.467Z,101153.59
2022-11-29T00:57:24.268Z,101148.91
2022-11-29T00:59:51.133Z,101150.44
2022-11-29T01:02:17.967Z,101152.69
2022-11-29T01:04:45.141Z,101150.19
2022-11-29T01:07:12.010Z,101146.59
2022-11-29T01:09:38.914Z,101146.38
2022-11-29T01:12:05.828Z,101136.62
2022-11-29T01:14:39.034Z,101125.41
2022-11-29T01:17:05.898Z,101142.88
2022-11-29T01:19:32.717Z,101141.47
2022-11-29T01:21:59.491Z,101140.41
2022-11-29T01:24:26.397Z,101139.94
2022-11-29T01:26:53.192Z,101142.56
2022-11-29T01:29:19.911Z,101143.59
2022-11-29T01:31:46.943Z,101137.41
2022-11-29T01:34:13.913Z,101148.66
2022-11-29T01:36:40.744Z,101145.25
2022-11-29T01:39:07.531Z,101144.47
2022-11-29T01:41:37.287Z,101141.91
2022-11-29T01:44:04.063Z,101143.69
2022-11-29T01:46:34.408Z,101142.97
2022-11-29T01:49:10.414Z,101139.38
2022-11-29T01:51:40.422Z,101146.31
2022-11-29T01:54:08.892Z,101142.97
2022-11-29T01:56:37.474Z,101144.75
2022-11-29T01:59:09.665Z,101138.69
2022-11-29T02:01:37.109Z,101137.81
2022-11-29T02:04:04.901Z,101143.69
2022-11-29T02:06:32.632Z,101139.19
2022-11-29T02:08:59.468Z,101141.84
2022-11-29T02:12:07.962Z,101139.09
2022-11-29T02:14:43.001Z,101147.94
2022-11-29T02:17:15.816Z,101150.47
2022-11-29T02:20:20.994Z,101146.97
2022-11-29T02:23:01.907Z,101151.22
2022-11-29T02:25:50.386Z,101145.91
2022-11-29T02:28:51.370Z,101157.81
2022-11-29T02:31:33.375Z,101158.81
2022-11-29T02:34:21.931Z,101152.47
2022-11-29T02:37:11.669Z,101150.62
2022-11-29T02:39:52.099Z,101153.88
2022-11-29T02:42:55.581Z,101150.47
2022-11-29T02:45:36.344Z,101150.44
2022-11-29T02:48:22.094Z,101144.59
2022-11-29T02:51:11.027Z,101150.44
2022-11-29T02:54:02.555Z,101153.78
2022-11-29T02:56:51.052Z,101154.78
2022-11-29T02:59:39.251Z,101156.44
2022-11-29T03:02:35.940Z,101157.31
2022-11-29T03:05:35.257Z,101170.44
2022-11-29T03:08:17.336Z,101163.41
2022-11-29T03:11:25.944Z,101164.31
2022-11-29T03:14:14.623Z,101167.00
2022-11-29T03:17:01.011Z,101167.88
2022-11-29T03:19:48.593Z,101161.69
2022-11-29T03:22:35.000Z,101171.28
2022-11-29T03:25:13.113Z,101150.12
2022-11-29T03:27:59.897Z,101153.72
2022-11-29T03:30:28.590Z,101169.59
2022-11-29T03:33:07.175Z,101173.97
2022-11-29T03:35:41.803Z,101177.38
2022-11-29T03:38:26.055Z,101170.38
2022-11-29T03:41:24.328Z,101178.22
2022-11-29T03:44:04.074Z,101167.66
2022-11-29T03:46:38.126Z,101190.44
2022-11-29T03:49:18.428Z,101183.34
2022-11-29T03:52:10.339Z,101182.56
2022-11-29T03:55:09.340Z,101183.44
2022-11-29T03:58:02.307Z,101177.34
2022-11-29T04:00:40.880Z,101196.56
2022-11-29T04:03:36.791Z,101179.91
2022-11-29T04:06:34.630Z,101191.16
2022-11-29T04:09:04.499Z,101194.78
2022-11-29T04:11:37.268Z,101196.47
2022-11-29T04:14:30.722Z,101197.28
2022-11-29T04:17:21.270Z,101199.13
2022-11-29T04:20:08.361Z,101202.59
2022-11-29T04:23:00.242Z,101203.44
2022-11-29T04:29:40.247Z,101196.63
2022-11-29T04:32:43.936Z,101196.63
2022-11-29T04:35:38.111Z,101200.69
2022-11-29T04:38:32.816Z,101197.13
2022-11-29T04:41:19.950Z,101199.63
2022-11-29T04:44:18.141Z,101195.22
2022-11-29T04:47:00.045Z,101203.16
2022-11-29T04:50:04.664Z,101201.47
2022-11-29T04:52:40.605Z,101203.81
2022-11-29T04:55:31.031Z,101203.09
2022-11-29T04:58:03.927Z,101198.59
2022-11-29T05:00:40.136Z,101205.69
2022-11-29T05:03:15.380Z,101209.25
2022-11-29T05:05:53.837Z,101204.97
2022-11-29T05:08:29.389Z,101202.87
2022-11-29T05:11:14.862Z,101210.03
2022-11-29T05:14:00.190Z,101209.16
2022-11-29T05:16:49.955Z,101206.59
2022-11-29T05:19:47.573Z,101211.66
2022-11-29T05:22:33.018Z,101216.84
2022-11-29T05:25:21.313Z,101216.09
2022-11-29T05:28:09.976Z,101221.94
2022-11-29T05:31:17.347Z,101218.22
2022-11-29T05:34:42.412Z,101225.94
2022-11-29T05:37:35.887Z,101222.50
2022-11-29T05:40:14.484Z,101221.88
2022-11-29T05:42:47.013Z,101218.34
2022-11-29T05:45:31.773Z,101219.19
2022-11-29T05:48:09.325Z,101221.09
2022-11-29T05:50:43.180Z,101219.34
2022-11-29T05:53:29.210Z,101223.81
2022-11-29T05:56:07.044Z,101220.47
2022-11-29T05:58:42.235Z,101221.44
2022-11-29T06:01:29.979Z,101222.09
2022-11-29T06:04:07.976Z,101224.56
2022-11-29T06:07:00.503Z,101232.66
2022-11-29T06:09:39.873Z,101231.59
2022-11-29T06:12:19.537Z,101234.28
2022-11-29T06:15:06.401Z,101240.41
2022-11-29T06:18:02.540Z,101241.25
2022-11-29T06:21:06.485Z,101249.16
2022-11-29T06:23:58.920Z,101249.31
2022-11-29T06:26:34.417Z,101250.16
2022-11-29T06:29:23.964Z,101252.97
2022-11-29T06:32:19.393Z,101253.66
2022-11-29T06:35:04.177Z,101247.88
2022-11-29T06:37:40.366Z,101249.72
2022-11-29T06:40:11.364Z,101257.63
2022-11-29T06:42:38.478Z,101263.78
2022-11-29T06:45:06.011Z,101270.03
2022-11-29T06:47:44.126Z,101253.28
2022-11-29T06:50:37.136Z,101255.22
2022-11-29T06:53:22.478Z,101260.31
2022-11-29T06:56:02.707Z,101250.84
2022-11-29T06:58:50.509Z,101263.84
2022-11-29T07:01:23.227Z,101251.72
2022-11-29T07:04:45.673Z,101257.06
2022-11-29T07:07:18.603Z,101260.44
2022-11-29T07:09:46.881Z,101264.56
2022-11-29T07:12:14.143Z,101262.28
2022-11-29T07:14:41.191Z,101261.56
2022-11-29T07:17:39.973Z,101261.53
2022-11-29T07:20:43.937Z,101269.66
2022-11-29T07:23:21.695Z,101268.75
2022-11-29T07:26:05.000Z,101269.59
2022-11-29T07:29:22.744Z,101269.62
2022-11-29T07:32:08.084Z,101270.50
2022-11-29T07:34:34.832Z,101269.84
2022-11-29T07:37:24.016Z,101269.41
2022-11-29T07:40:02.619Z,101271.22
2022-11-29T07:42:48.512Z,101272.88
2022-11-29T07:45:17.821Z,101270.03
2022-11-29T07:47:44.582Z,101276.34
2022-11-29T07:50:13.799Z,101278.31
2022-11-29T07:52:40.630Z,101279.09
2022-11-29T07:55:17.050Z,101285.28
2022-11-29T07:57:45.478Z,101277.78
2022-11-29T08:00:12.899Z,101275.97
2022-11-29T08:02:40.415Z,101282.94
2022-11-29T08:05:08.318Z,101287.16
2022-11-29T08:07:36.835Z,101281.56
2022-11-29T08:10:05.671Z,101277.69
2022-11-29T08:12:32.532Z,101283.03
2022-11-29T08:14:59.348Z,101275.50
2022-11-29T08:17:26.292Z,101287.03
2022-11-29T08:19:53.107Z,101277.78
2022-11-29T08:22:20.054Z,101277.84
2022-11-29T08:24:47.176Z,101276.81
2022-11-29T08:27:14.249Z,101278.47
2022-11-29T08:29:41.163Z,101282.41
2022-11-29T08:32:09.071Z,101279.78
2022-11-29T08:34:35.830Z,101281.84
2022-11-29T08:37:02.598Z,101277.69
2022-11-29T08:39:29.489Z,101279.19
2022-11-29T08:41:56.208Z,101283.72
2022-11-29T08:44:22.995Z,101288.41
2022-11-29T08:47:08.350Z,101289.38
2022-11-29T08:49:35.256Z,101290.38
2022-11-29T08:52:20.746Z,101287.59
2022-11-29T08:54:47.782Z,101287.50
2022-11-29T08:57:39.070Z,101284.09
2022-11-29T09:00:02.466Z,101289.69
2022-11-29T09:02:30.185Z,101286.16
2022-11-29T09:04:56.987Z,101281.59
2022-11-29T09:07:23.970Z,101292.03
2022-11-29T09:09:50.685Z,101289.97
2022-11-29T09:12:17.436Z,101287.19
2022-11-29T09:14:44.398Z,101288.44
2022-11-29T09:17:11.248Z,101282.81
2022-11-29T09:19:38.114Z,101285.91
2022-11-29T09:22:05.182Z,101274.13
2022-11-29T09:24:33.587Z,101276.94
2022-11-29T09:27:00.394Z,101278.72
2022-11-29T09:29:27.174Z,101284.53
2022-11-29T09:31:54.131Z,101281.34
2022-11-29T09:34:20.909Z,101287.19
2022-11-29T09:36:48.244Z,101287.44
2022-11-29T09:39:14.987Z,101284.09
2022-11-29T09:42:19.223Z,101283.09
2022-11-29T09:45:09.361Z,101281.03
2022-11-29T09:48:50.102Z,101274.37
2022-11-29T09:51:38.634Z,101273.84
2022-11-29T09:54:30.891Z,101265.47
2022-11-29T09:56:58.080Z,101266.63
2022-11-29T09:59:32.495Z,101247.81
2022-11-29T10:02:32.703Z,101252.97
2022-11-29T10:05:09.084Z,101264.09
2022-11-29T10:07:46.529Z,101260.41
2022-11-29T10:10:26.344Z,101261.38
2022-11-29T10:13:03.559Z,101258.78
2022-11-29T10:15:34.590Z,101258.34
2022-11-29T10:18:07.362Z,101260.19
2022-11-29T10:20:43.529Z,101252.38
2022-11-29T10:23:19.694Z,101251.44
2022-11-29T10:25:49.922Z,101251.75
2022-11-29T10:28:23.545Z,101252.62
2022-11-29T10:30:53.987Z,101252.84
2022-11-29T10:33:29.833Z,101249.81
2022-11-29T10:36:00.221Z,101245.59
2022-11-29T10:38:31.465Z,101243.66
2022-11-29T10:41:10.195Z,101215.63
2022-11-29T10:43:38.244Z,101231.31
2022-11-29T10:46:10.508Z,101234.81
2022-11-29T10:48:38.154Z,101235.03
2022-11-29T10:51:17.323Z,101213.81
2022-11-29T10:53:46.686Z,101229.84
2022-11-29T10:56:27.580Z,101204.78
2022-11-29T10:59:05.316Z,101220.53
2022-11-29T11:01:37.222Z,101179.34
2022-11-29T11:04:08.577Z,101218.06
2022-11-29T11:07:06.144Z,101211.19
2022-11-29T11:09:48.650Z,101201.84
2022-11-29T11:12:15.332Z,101189.06
2022-11-29T11:14:43.876Z,101204.53
2022-11-29T11:17:32.999Z,101203.78
2022-11-29T11:20:04.645Z,101196.97
2022-11-29T11:22:33.436Z,101200.47
2022-11-29T11:25:05.689Z,101203.75
2022-11-29T11:27:40.095Z,101200.81
2022-11-29T11:30:24.715Z,101202.09
2022-11-29T11:33:25.937Z,101205.69
2022-11-29T11:36:06.019Z,101206.97
2022-11-29T11:38:35.790Z,101204.00
2022-11-29T11:41:11.946Z,101202.75
2022-11-29T11:43:39.941Z,101205.66
2022-11-29T11:46:08.296Z,101207.53
2022-11-29T11:48:36.023Z,101209.44
2022-11-29T11:51:03.332Z,101210.56
2022-11-29T11:53:36.683Z,101176.25
2022-11-29T11:56:10.453Z,101194.22
2022-11-29T11:58:45.344Z,101194.22
2022-11-29T12:01:12.659Z,101199.28
2022-11-29T12:04:02.625Z,101195.00
2022-11-29T12:06:39.371Z,101205.31
2022-11-29T12:09:09.895Z,101201.41
2022-11-29T12:12:15.330Z,101200.72
2022-11-29T12:14:53.766Z,101199.47
2022-11-29T12:17:26.730Z,101192.53
2022-11-29T12:19:59.292Z,101189.78
2022-11-29T12:22:34.372Z,101188.25
2022-11-29T12:25:05.042Z,101161.16
2022-11-29T12:27:32.085Z,101176.75
2022-11-29T12:29:59.046Z,101183.94
2022-11-29T12:32:57.878Z,101183.94
2022-11-29T12:35:38.221Z,101188.38
2022-11-29T12:38:27.649Z,101186.50
2022-11-29T12:41:22.531Z,101190.19
2022-11-29T12:44:05.585Z,101183.78
2022-11-29T12:46:34.246Z,101185.94
2022-11-29T12:49:26.629Z,101191.41
2022-11-29T12:52:20.274Z,101179.59
2022-11-29T12:55:23.284Z,101183.75
2022-11-29T12:58:14.397Z,101183.72
2022-11-29T13:00:54.792Z,101180.25
2022-11-29T13:03:33.381Z,101175.87
2022-11-29T13:06:08.692Z,101180.41
2022-11-29T13:08:38.314Z,101176.06
2022-11-29T13:11:23.587Z,101181.63
2022-11-29T13:14:42.150Z,101183.13
2022-11-29T13:17:11.997Z,101179.72
2022-11-29T13:19:44.811Z,101178.12
2022-11-29T13:22:20.518Z,101187.53
2022-11-29T13:24:52.078Z,101189.84
2022-11-29T13:27:27.495Z,101193.91
2022-11-29T13:29:56.111Z,101192.97
2022-11-29T13:32:55.181Z,101191.16
2022-11-29T13:35:51.514Z,101191.09
2022-11-29T13:38:51.682Z,101187.72
2022-11-29T13:41:33.813Z,101184.41
2022-11-29T13:44:36.829Z,101175.69
2022-11-29T13:47:12.660Z,101182.19
2022-11-29T13:49:51.861Z,101176.13
2022-11-29T13:52:42.507Z,101184.19
2022-11-29T13:55:12.141Z,101182.50
2022-11-29T14:00:45.057Z,101182.59
2022-11-29T14:03:24.020Z,101191.66
2022-11-29T14:05:53.080Z,101189.78
2022-11-29T14:09:01.914Z,101180.56
2022-11-29T14:11:28.391Z,101187.75
2022-11-29T14:14:29.153Z,101190.97
2022-11-29T14:17:01.344Z,101187.19
2022-11-29T14:19:36.154Z,101184.72
2022-11-29T14:22:03.014Z,101187.25
2022-11-29T14:24:32.832Z,101183.47
2022-11-29T14:27:05.798Z,101192.22
2022-11-29T14:29:50.989Z,101188.63
2022-11-29T14:32:24.895Z,101187.53
2022-11-29T14:35:12.938Z,101193.28
2022-11-29T14:38:19.312Z,101197.31
2022-11-29T14:40:53.059Z,101207.47
2022-11-29T14:43:28.608Z,101201.06
2022-11-29T14:46:13.997Z,101195.59
2022-11-29T14:48:56.116Z,101197.16
2022-11-29T14:51:25.571Z,101200.44
2022-11-29T14:54:03.352Z,101186.25
2022-11-29T14:56:34.782Z,101186.88
2022-11-29T14:59:39.597Z,101185.69
2022-11-29T15:02:28.607Z,101185.56
2022-11-29T15:04:57.412Z,101189.59
2022-11-29T15:07:29.233Z,101187.59
2022-11-29T15:10:03.346Z,101188.00
2022-11-29T15:12:37.315Z,101183.41
2022-11-29T15:15:28.510Z,101185.09
2022-11-29T15:18:11.406Z,101185.00
2022-11-29T15:20:41.233Z,101195.28
2022-11-29T15:23:19.167Z,101189.00
2022-11-29T15:25:48.434Z,101183.69
2022-11-29T15:28:24.691Z,101187.88
2022-11-29T15:31:05.217Z,101190.50
2022-11-29T15:33:34.412Z,101179.97
2022-11-29T15:36:07.224Z,101187.69
2022-11-29T15:38:49.359Z,101188.41
2022-11-29T15:41:19.185Z,101182.16
2022-11-29T15:43:51.183Z,101184.56
2022-11-29T15:46:25.068Z,101185.91
2022-11-29T15:48:51.915Z,101184.75
2022-11-29T15:51:18.679Z,101186.41
2022-11-29T15:53:50.014Z,101198.38
2022-11-29T15:56:46.445Z,101200.09
2022-11-29T15:59:34.434Z,101206.16
2022-11-29T16:02:25.325Z,101203.37
2022-11-29T16:04:57.294Z,101201.53
2022-11-29T16:07:26.595Z,101203.22
2022-11-29T16:09:59.418Z,101204.09
2022-11-29T16:12:26.668Z,101205.63
2022-11-29T16:14:56.590Z,101201.25
2022-11-29T16:17:34.968Z,101207.44
2022-11-29T16:20:15.665Z,101207.53
2022-11-29T16:22:42.525Z,101211.88
2022-11-29T16:25:17.928Z,101217.91
2022-11-29T16:27:45.501Z,101218.16
2022-11-29T16:30:23.563Z,101219.06
2022-11-29T16:32:54.972Z,101214.25
2022-11-29T16:35:26.718Z,101211.91
2022-11-29T16:37:57.613Z,101205.94
2022-11-29T16:40:30.861Z,101206.94
2022-11-29T16:43:03.821Z,101197.97
2022-11-29T16:45:39.549Z,101200.47
2022-11-29T16:48:28.082Z,101201.97
2022-11-29T16:51:10.836Z,101198.00
2022-11-29T16:53:42.828Z,101201.09
2022-11-29T16:56:15.047Z,101206.09
2022-11-29T16:59:20.966Z,101197.53
2022-11-29T17:01:32.522Z,101210.47
2022-11-29T17:04:00.871Z,101182.81
2022-11-29T17:06:30.063Z,101208.47
2022-11-29T17:08:59.448Z,101218.88
2022-11-29T17:11:27.118Z,101217.84
2022-11-29T17:13:54.446Z,101223.97
2022-11-29T17:16:23.248Z,101228.12
2022-11-29T17:18:53.044Z,101233.22
2022-11-29T17:21:25.702Z,101233.81
2022-11-29T17:23:53.944Z,101230.28
2022-11-29T17:26:22.570Z,101234.56
2022-11-29T17:28:51.714Z,101235.38
2022-11-29T17:31:22.520Z,101231.59
2022-11-29T17:33:50.462Z,101243.00
2022-11-29T17:36:20.481Z,101242.09
2022-11-29T17:38:48.703Z,101235.78
2022-11-29T17:41:18.259Z,101247.88
2022-11-29T17:43:45.482Z,101251.34
2022-11-29T17:46:18.632Z,101252.88
2022-11-29T17:48:46.350Z,101262.34
2022-11-29T17:51:43.691Z,101254.22
2022-11-29T17:54:03.434Z,101251.88
2022-11-29T17:56:31.188Z,101259.56
2022-11-29T17:59:00.943Z,101247.41
2022-11-29T18:01:30.894Z,101261.28
2022-11-29T18:04:00.682Z,101265.66
2022-11-29T18:06:34.625Z,101269.72
2022-11-29T18:09:03.018Z,101256.63
2022-11-29T18:11:47.432Z,101259.28
2022-11-29T18:14:18.551Z,101264.41
2022-11-29T18:16:46.406Z,101261.59
2022-11-29T18:19:22.932Z,101264.84
2022-11-29T18:21:50.562Z,101257.84
2022-11-29T18:24:18.433Z,101267.37
2022-11-29T18:26:46.218Z,101261.97
2022-11-29T18:29:13.496Z,101269.88
2022-11-29T18:31:43.007Z,101256.06
2022-11-29T18:34:13.372Z,101270.94
2022-11-29T18:36:46.445Z,101257.66
2022-11-29T18:39:16.394Z,101264.84
2022-11-29T18:41:46.745Z,101266.56
2022-11-29T18:44:15.629Z,101269.22
2022-11-29T18:46:44.507Z,101259.78
2022-11-29T18:49:15.802Z,101252.19
2022-11-29T18:51:45.351Z,101258.53
2022-11-29T18:54:13.241Z,101254.53
2022-11-29T18:56:40.533Z,101251.03
2022-11-29T18:59:13.667Z,101254.69
2022-11-29T19:01:43.057Z,101253.00
2022-11-29T19:04:15.531Z,101264.37
2022-11-29T19:06:43.252Z,101264.37
2022-11-29T19:09:16.956Z,101257.94
2022-11-29T19:11:44.258Z,101256.94
2022-11-29T19:14:13.092Z,101258.13
2022-11-29T19:16:46.202Z,101266.19
2022-11-29T19:19:14.020Z,101274.97
2022-11-29T19:21:41.876Z,101277.59
2022-11-29T19:24:15.233Z,101267.41
2022-11-29T19:26:45.675Z,101277.28
2022-11-29T19:29:14.293Z,101280.22
2022-11-29T19:31:42.917Z,101277.78
2022-11-29T19:34:10.759Z,101258.28
2022-11-29T19:36:45.454Z,101276.41
2022-11-29T19:39:14.653Z,101283.34
2022-11-29T19:41:45.167Z,101278.00
2022-11-29T19:44:12.762Z,101275.50
2022-11-29T19:46:42.526Z,101284.31
2022-11-29T19:49:10.892Z,101278.19
2022-11-29T19:51:38.480Z,101277.41
2022-11-29T19:54:09.477Z,101278.38
2022-11-29T19:56:36.863Z,101279.25
2022-11-29T19:59:05.091Z,101281.09
2022-11-29T20:01:40.281Z,101264.44
2022-11-29T20:04:09.659Z,101271.72
2022-11-29T20:06:36.727Z,101269.06
2022-11-29T20:09:04.662Z,101271.56
2022-11-29T20:11:31.985Z,101265.44
2022-11-29T20:14:00.652Z,101268.06
2022-11-29T20:16:29.285Z,101269.78
2022-11-29T20:18:57.436Z,101272.31
2022-11-29T20:21:33.873Z,101268.06
2022-11-29T20:24:07.519Z,101263.72
2022-11-29T20:26:37.368Z,101266.97
2022-11-29T20:29:06.592Z,101257.50
2022-11-29T20:31:37.020Z,101258.44
2022-11-29T20:34:05.190Z,101260.94
2022-11-29T20:37:10.333Z,101258.25
2022-11-29T20:39:58.775Z,101262.75
2022-11-29T20:42:29.041Z,101262.00
2022-11-29T20:44:59.177Z,101261.34
2022-11-29T20:47:32.882Z,101265.66
2022-11-29T20:50:00.320Z,101259.72
2022-11-29T20:52:51.423Z,101257.09
2022-11-29T20:55:18.615Z,101259.03
2022-11-29T20:57:45.755Z,101256.56
2022-11-29T21:00:13.991Z,101244.56
2022-11-29T21:02:40.875Z,101244.63
2022-11-29T21:05:09.307Z,101249.91
2022-11-29T21:07:36.849Z,101249.00
2022-11-29T21:10:05.267Z,101249.94
2022-11-29T21:12:32.760Z,101249.06
2022-11-29T21:14:59.999Z,101244.53
2022-11-29T21:17:33.176Z,101251.06
2022-11-29T21:20:01.474Z,101260.97
2022-11-29T21:23:10.827Z,101264.44
2022-11-29T21:25:59.573Z,101259.28
2022-11-29T21:28:34.922Z,101258.53
2022-11-29T21:31:02.113Z,101259.53
2022-11-29T21:33:30.253Z,101256.09
2022-11-29T21:35:58.155Z,101258.00
2022-11-29T21:38:26.870Z,101257.16
2022-11-29T21:40:53.935Z,101259.69
2022-11-29T21:43:22.778Z,101261.59
2022-11-29T21:45:52.177Z,101265.91
2022-11-29T21:48:42.381Z,101273.97
2022-11-29T21:51:11.211Z,101267.78
2022-11-29T21:53:39.591Z,101260.94
2022-11-29T21:56:08.517Z,101258.34
2022-11-29T21:58:36.952Z,101255.91
2022-11-29T22:01:15.885Z,101252.56
2022-11-29T22:03:43.821Z,101261.31
2022-11-29T22:06:13.354Z,101262.31
2022-11-29T22:08:41.615Z,101260.66
2022-11-29T22:11:17.092Z,101257.19
2022-11-29T22:14:02.869Z,101248.69
2022-11-29T22:16:30.553Z,101245.88
2022-11-29T22:18:57.380Z,101247.69
2022-11-29T22:21:24.283Z,101264.53
2022-11-29T22:23:52.612Z,101260.22
2022-11-29T22:26:19.459Z,101251.56
2022-11-29T22:28:46.314Z,101262.16
2022-11-29T22:31:13.157Z,101246.44
2022-11-29T22:33:40.468Z,101241.25
2022-11-29T22:36:10.008Z,101250.22
2022-11-29T22:38:37.903Z,101254.56
2022-11-29T22:41:12.232Z,101247.72
2022-11-29T22:43:40.201Z,101248.72
2022-11-29T22:46:14.441Z,101247.00
2022-11-29T22:48:43.800Z,101240.22
2022-11-29T22:51:16.822Z,101247.28
2022-11-29T22:53:50.040Z,101240.34
2022-11-29T22:56:17.204Z,101238.62
2022-11-29T22:58:44.893Z,101236.16
2022-11-29T23:01:17.769Z,101237.19
2022-11-29T23:03:48.469Z,101232.97
2022-11-29T23:06:18.443Z,101234.78
2022-11-29T23:08:47.168Z,101230.47
2022-11-29T23:11:17.076Z,101235.69
2022-11-29T23:13:44.128Z,101240.19
2022-11-29T23:16:16.478Z,101240.28
2022-11-29T23:18:45.616Z,101235.16
2022-11-29T23:21:15.518Z,101227.22
2022-11-29T23:23:43.139Z,101227.25
2022-11-29T23:26:18.514Z,101230.81
2022-11-29T23:28:45.476Z,101218.38
2022-11-29T23:31:12.488Z,101235.25
2022-11-29T23:33:39.440Z,101232.63
2022-11-29T23:36:08.364Z,101231.00
2022-11-29T23:38:36.191Z,101218.72
2022-11-29T23:41:03.585Z,101216.19
2022-11-29T23:43:35.165Z,101217.97
2022-11-29T23:46:07.347Z,101217.19
2022-11-29T23:48:34.537Z,101216.31
2022-11-29T23:51:01.513Z,101200.41
2022-11-29T23:53:32.383Z,101216.34
2022-11-29T23:56:02.165Z,101223.22
2022-11-29T23:58:30.462Z,101220.69
